createdAt,value
2022-12-22T16:04:08.303Z,12.00
2022-12-22T16:14:13.243Z,11.20
2022-12-22T16:24:26.329Z,10.90
2022-12-22T16:34:28.149Z,10.80
2022-12-22T16:44:29.815Z,10.80
2022-12-22T16:54:31.557Z,10.70
2022-12-22T17:04:33.753Z,10.60
2022-12-22T17:14:37.573Z,10.70
2022-12-22T17:24:40.062Z,10.70
2022-12-22T17:34:41.754Z,10.70
2022-12-22T17:44:43.692Z,10.70
2022-12-22T17:54:47.313Z,10.80
2022-12-22T18:04:49.810Z,10.80
2022-12-22T18:14:52.124Z,10.80
2022-12-22T18:24:55.042Z,10.70
2022-12-22T18:34:56.694Z,10.60
2022-12-22T18:44:58.339Z,10.60
2022-12-22T18:55:00.358Z,10.60
2022-12-22T19:05:02.965Z,10.70
2022-12-22T19:15:06.702Z,10.70
2022-12-22T19:25:13.682Z,10.70
2022-12-22T19:35:18.516Z,10.80
2022-12-22T19:45:27.110Z,10.90
2022-12-22T19:55:32.345Z,10.90
2022-12-22T20:09:21.302Z,10.90
2022-12-22T20:29:25.254Z,11.00
2022-12-22T20:39:26.913Z,11.10
2022-12-22T20:56:36.360Z,11.00
2022-12-22T21:06:42.902Z,11.00
2022-12-22T21:16:44.740Z,11.00
2022-12-22T21:26:50.962Z,11.00
2022-12-22T21:36:59.746Z,10.90
2022-12-22T21:47:01.956Z,10.90
2022-12-22T21:57:04.145Z,10.90
2022-12-22T22:07:05.762Z,10.90
2022-12-22T22:17:08.540Z,10.90
2022-12-22T22:27:10.198Z,10.90
2022-12-22T22:37:11.902Z,10.90
2022-12-22T22:47:13.647Z,10.90
2022-12-22T22:57:15.545Z,10.90
2022-12-22T23:17:19.349Z,10.90
2022-12-22T23:27:21.004Z,10.90
2022-12-22T23:37:22.652Z,10.90
2022-12-22T23:47:24.319Z,10.80
